Time;durP1;ratioP1;P1;durP2;ratioP2;P2;SDS_P1;SDS_P2;PMS_P1;PMS_P2;Temp;Humidity;BMP_temperature;BMP_pressure;BME280_temperature;BME280_humidity;BME280_pressure;Samples;Min_cycle;Max_cycle;Signal;HPM_P1;HPM_P2
2024/01/08 00:00:14;;;;;;;1.53;1.43;;;2.40;62.80;;;;;;6254221;28;20193;-64
2024/01/08 00:03:14;;;;;;;1.47;1.30;;;2.40;62.50;;;;;;6285824;28;20192;-64
2024/01/08 00:06:17;;;;;;;1.20;1.10;;;2.40;63.10;;;;;;6283954;28;20244;-64
2024/01/08 00:09:18;;;;;;;1.40;1.30;;;2.40;62.30;;;;;;6255681;28;20251;-64
2024/01/08 00:12:19;;;;;;;1.20;1.10;;;2.50;61.80;;;;;;6260902;28;20190;-64
2024/01/08 00:15:19;;;;;;;1.30;1.20;;;2.50;62.50;;;;;;6279123;28;20199;-64
2024/01/08 00:18:21;;;;;;;1.30;1.20;;;2.50;61.40;;;;;;6248696;28;20200;-64
2024/01/08 00:21:22;;;;;;;1.30;1.17;;;2.40;62.80;;;;;;6266483;28;20276;-64
2024/01/08 00:24:23;;;;;;;1.30;1.20;;;2.40;62.70;;;;;;6260153;28;20192;-64
2024/01/08 00:27:23;;;;;;;1.47;1.23;;;2.40;62.70;;;;;;6293362;28;20223;-64
2024/01/08 00:30:24;;;;;;;1.60;1.50;;;2.40;62.60;;;;;;6269430;28;20198;-64
2024/01/08 00:33:25;;;;;;;1.43;1.33;;;2.50;63.20;;;;;;6264866;28;20212;-64
2024/01/08 00:36:26;;;;;;;1.30;1.20;;;2.50;62.90;;;;;;6269583;28;20281;-64
2024/01/08 00:39:27;;;;;;;1.37;1.17;;;2.40;64.20;;;;;;6266667;28;20202;-64
2024/01/08 00:42:27;;;;;;;1.77;1.30;;;2.50;62.60;;;;;;6270903;28;20188;-64
2024/01/08 00:45:29;;;;;;;1.27;1.10;;;2.50;61.90;;;;;;6277468;28;20187;-64
2024/01/08 00:48:29;;;;;;;1.60;1.30;;;2.50;62.70;;;;;;6276770;28;20208;-64
2024/01/08 00:51:30;;;;;;;1.00;0.97;;;2.50;62.40;;;;;;6280964;28;20234;-64
2024/01/08 00:54:31;;;;;;;1.30;1.20;;;2.50;62.70;;;;;;6260767;28;20185;-64
2024/01/08 00:57:32;;;;;;;1.30;1.20;;;2.50;62.60;;;;;;6262343;28;20240;-64
2024/01/08 01:00:33;;;;;;;1.30;1.20;;;2.50;64.70;;;;;;6263823;28;20208;-64
2024/01/08 01:03:34;;;;;;;1.70;1.33;;;2.50;64.80;;;;;;6265766;28;20239;-64
2024/01/08 01:06:34;;;;;;;1.27;1.17;;;2.50;63.50;;;;;;6275231;28;20225;-64
2024/01/08 01:09:35;;;;;;;1.30;1.20;;;2.50;63.30;;;;;;6274831;28;20185;-64
2024/01/08 01:12:36;;;;;;;1.50;1.40;;;2.50;63.60;;;;;;6263273;28;20189;-64
2024/01/08 01:15:36;;;;;;;1.43;1.20;;;2.50;63.10;;;;;;6270312;28;20193;-64
2024/01/08 01:18:37;;;;;;;1.30;1.20;;;2.50;63.00;;;;;;6262943;28;20279;-64
2024/01/08 01:21:38;;;;;;;1.40;1.30;;;2.50;64.70;;;;;;6262865;28;20200;-64
2024/01/08 01:24:38;;;;;;;1.87;1.20;;;2.50;62.40;;;;;;6269580;28;20203;-64
2024/01/08 01:27:39;;;;;;;1.43;1.30;;;2.60;62.90;;;;;;6277921;28;20678;-64
2024/01/08 01:30:40;;;;;;;1.37;1.27;;;2.60;61.70;;;;;;6281283;28;20643;-64
2024/01/08 01:33:40;;;;;;;1.30;1.20;;;2.60;63.00;;;;;;6285354;28;20651;-64
2024/01/08 01:36:41;;;;;;;1.27;1.17;;;2.60;62.50;;;;;;6270079;28;20280;-64
2024/01/08 01:39:42;;;;;;;1.40;1.30;;;2.60;62.40;;;;;;6262414;28;20196;-64
2024/01/08 01:42:42;;;;;;;1.47;1.27;;;2.60;61.90;;;;;;6262001;28;20204;-64
2024/01/08 01:45:43;;;;;;;1.00;0.90;;;2.70;62.60;;;;;;6286317;28;20258;-64
2024/01/08 01:48:44;;;;;;;1.27;1.20;;;2.70;63.20;;;;;;6264398;28;20227;-64
2024/01/08 01:51:47;;;;;;;1.37;1.10;;;2.70;63.70;;;;;;6261365;28;20201;-64
2024/01/08 01:54:50;;;;;;;1.80;1.20;;;2.70;62.70;;;;;;6266199;28;20709;-64
2024/01/08 01:57:51;;;;;;;1.53;1.10;;;2.70;63.40;;;;;;6288740;28;20316;-64
2024/01/08 02:00:52;;;;;;;0.93;0.93;;;2.70;65.00;;;;;;6263520;28;20248;-64
2024/01/08 02:03:53;;;;;;;1.43;1.20;;;2.70;64.50;;;;;;6299104;28;20195;-64
2024/01/08 02:06:54;;;;;;;1.20;1.10;;;2.60;63.50;;;;;;6284574;28;20220;-64
2024/01/08 02:09:55;;;;;;;1.80;1.30;;;2.60;61.70;;;;;;6286854;28;20192;-64
2024/01/08 02:12:56;;;;;;;1.27;1.00;;;2.60;62.40;;;;;;6281087;28;20250;-64
2024/01/08 02:15:56;;;;;;;1.00;0.90;;;2.60;62.30;;;;;;6254037;28;20188;-64
2024/01/08 02:18:57;;;;;;;1.00;0.90;;;2.70;61.60;;;;;;6275005;28;20193;-64
2024/01/08 02:21:58;;;;;;;1.37;1.13;;;2.60;62.10;;;;;;6290439;28;20292;-64
2024/01/08 02:24:58;;;;;;;1.03;0.93;;;2.50;62.30;;;;;;6281482;28;20200;-64
2024/01/08 02:27:59;;;;;;;1.87;1.23;;;2.50;62.70;;;;;;6275290;28;20215;-64
2024/01/08 02:31:00;;;;;;;1.50;1.40;;;2.50;63.50;;;;;;6276165;28;20185;-64
2024/01/08 02:34:01;;;;;;;1.50;1.40;;;2.50;62.60;;;;;;6274361;28;20234;-64
2024/01/08 02:37:01;;;;;;;1.20;1.10;;;2.50;62.40;;;;;;6266792;28;20224;-64
2024/01/08 02:40:02;;;;;;;0.87;0.87;;;2.60;61.70;;;;;;6285438;28;20231;-64
2024/01/08 02:43:03;;;;;;;1.50;1.13;;;2.60;62.10;;;;;;6305889;28;20183;-64
2024/01/08 02:46:04;;;;;;;1.40;1.30;;;2.60;63.10;;;;;;6270429;28;20294;-64
2024/01/08 02:49:04;;;;;;;1.23;1.13;;;2.60;61.90;;;;;;6281394;28;20213;-64
2024/01/08 02:52:05;;;;;;;2.20;1.10;;;2.70;60.90;;;;;;6265263;28;20181;-64
2024/01/08 02:55:06;;;;;;;0.93;0.93;;;2.70;61.40;;;;;;6280396;28;20184;-64
2024/01/08 02:58:08;;;;;;;0.90;0.90;;;2.70;62.10;;;;;;6269784;28;20288;-64
2024/01/08 03:01:08;;;;;;;1.20;1.10;;;2.70;62.70;;;;;;6265553;28;20263;-64
2024/01/08 03:04:09;;;;;;;1.13;1.00;;;2.70;61.90;;;;;;6261699;28;20197;-64
2024/01/08 03:07:17;;;;;;;1.20;1.10;;;2.70;61.60;;;;;;6282209;28;20216;-64
2024/01/08 03:10:18;;;;;;;1.23;1.10;;;2.70;62.00;;;;;;6301726;28;20181;-64
2024/01/08 03:13:19;;;;;;;1.33;1.23;;;2.60;60.90;;;;;;6285787;28;20195;-64
2024/01/08 03:16:20;;;;;;;1.57;1.10;;;2.70;60.40;;;;;;6287933;28;20184;-64
2024/01/08 03:19:20;;;;;;;1.20;1.10;;;2.70;60.50;;;;;;6259661;28;20195;-64
2024/01/08 03:22:21;;;;;;;1.30;1.20;;;2.70;61.00;;;;;;6257307;28;20686;-64
2024/01/08 03:25:22;;;;;;;1.40;1.00;;;2.60;61.30;;;;;;6276484;28;20183;-64
2024/01/08 03:28:22;;;;;;;1.93;1.30;;;2.70;62.30;;;;;;6287708;28;20227;-64
2024/01/08 03:31:23;;;;;;;1.10;1.00;;;2.50;60.30;;;;;;6284673;28;20181;-64
2024/01/08 03:34:24;;;;;;;1.20;1.10;;;2.50;59.60;;;;;;6278102;28;20180;-64
2024/01/08 03:37:24;;;;;;;1.87;1.20;;;2.50;61.20;;;;;;6266367;28;20193;-64
2024/01/08 03:40:25;;;;;;;1.00;1.00;;;2.60;59.50;;;;;;6266503;28;20657;-64
2024/01/08 03:43:26;;;;;;;1.40;1.17;;;2.60;59.60;;;;;;6269646;28;20208;-64
2024/01/08 03:46:26;;;;;;;0.97;0.83;;;2.60;59.80;;;;;;6259679;28;20188;-64
2024/01/08 03:49:27;;;;;;;1.23;1.00;;;2.60;60.30;;;;;;6269938;28;20221;-64
2024/01/08 03:52:28;;;;;;;1.33;1.20;;;2.70;60.90;;;;;;6267414;28;20189;-64
2024/01/08 03:55:30;;;;;;;1.60;1.50;;;2.70;61.00;;;;;;6270700;28;20188;-64
2024/01/08 03:58:30;;;;;;;0.93;0.93;;;2.60;61.30;;;;;;6221784;28;1215163;-64
2024/01/08 04:01:31;;;;;;;1.33;1.10;;;2.60;60.90;;;;;;6263992;28;20323;-64
2024/01/08 04:04:32;;;;;;;0.83;0.83;;;2.60;59.90;;;;;;6257005;28;20201;-64
2024/01/08 04:07:32;;;;;;;1.40;1.27;;;2.50;60.40;;;;;;6281175;28;20220;-64
2024/01/08 04:10:33;;;;;;;1.10;1.00;;;2.50;60.90;;;;;;6285285;28;20185;-64
2024/01/08 04:13:37;;;;;;;1.20;1.10;;;2.50;61.40;;;;;;6281590;28;20288;-64
2024/01/08 04:16:38;;;;;;;1.33;1.23;;;2.50;61.00;;;;;;6275721;28;20193;-64
2024/01/08 04:19:39;;;;;;;3.10;1.37;;;2.50;61.30;;;;;;6265984;28;20193;-64
2024/01/08 04:22:44;;;;;;;1.20;1.07;;;2.50;60.40;;;;;;6270751;28;20200;-64
2024/01/08 04:25:44;;;;;;;1.30;1.20;;;2.50;61.40;;;;;;6297709;28;20197;-64
2024/01/08 04:28:45;;;;;;;1.30;1.20;;;2.50;61.80;;;;;;6256916;28;20217;-64
2024/01/08 04:31:46;;;;;;;2.00;1.10;;;2.50;62.80;;;;;;6269538;28;20200;-64
2024/01/08 04:34:47;;;;;;;1.83;1.20;;;2.50;61.40;;;;;;6259889;28;20218;-64
2024/01/08 04:37:48;;;;;;;1.50;1.40;;;2.50;62.70;;;;;;6269769;28;20192;-64
2024/01/08 04:40:48;;;;;;;1.43;1.33;;;2.50;62.80;;;;;;6268092;28;20200;-64
2024/01/08 04:43:49;;;;;;;1.70;1.27;;;2.50;61.50;;;;;;6257321;28;20193;-64
2024/01/08 04:46:50;;;;;;;2.47;1.27;;;2.50;62.10;;;;;;6274886;28;20201;-64
2024/01/08 04:49:51;;;;;;;1.10;1.00;;;2.60;62.70;;;;;;6268980;28;20188;-64
2024/01/08 04:52:51;;;;;;;1.33;1.23;;;2.60;63.10;;;;;;6279081;28;20246;-64
2024/01/08 04:55:52;;;;;;;1.53;1.20;;;2.70;62.80;;;;;;6264730;28;20192;-64
2024/01/08 04:58:53;;;;;;;1.77;1.40;;;2.70;60.70;;;;;;6269721;28;20240;-64
2024/01/08 05:01:54;;;;;;;1.23;1.13;;;2.70;62.10;;;;;;6274714;28;20274;-64
2024/01/08 05:04:54;;;;;;;1.70;1.30;;;2.70;61.60;;;;;;6269305;28;20192;-64
2024/01/08 05:07:55;;;;;;;1.10;1.10;;;2.60;61.40;;;;;;6284457;28;20216;-64
2024/01/08 05:10:56;;;;;;;1.07;0.97;;;2.50;61.10;;;;;;6269321;28;20720;-64
2024/01/08 05:13:56;;;;;;;1.40;1.07;;;2.60;63.00;;;;;;6284396;28;20180;-64
2024/01/08 05:16:57;;;;;;;1.43;1.33;;;2.60;61.80;;;;;;6264059;28;20189;-64
2024/01/08 05:19:58;;;;;;;1.00;1.00;;;2.60;60.40;;;;;;6277560;28;20222;-64
2024/01/08 05:22:58;;;;;;;2.13;1.23;;;2.70;60.30;;;;;;6285035;28;20223;-64
2024/01/08 05:26:00;;;;;;;1.23;1.13;;;2.60;61.00;;;;;;6267734;28;20215;-64
2024/01/08 05:29:01;;;;;;;1.63;1.33;;;2.70;62.20;;;;;;6299009;28;20211;-64
2024/01/08 05:32:02;;;;;;;1.53;1.30;;;2.70;62.70;;;;;;6272428;28;20192;-64
2024/01/08 05:35:03;;;;;;;1.57;1.20;;;2.70;62.00;;;;;;6281579;28;20190;-63
2024/01/08 05:38:04;;;;;;;1.00;1.00;;;2.50;60.60;;;;;;6256001;28;20193;-64
2024/01/08 05:41:05;;;;;;;1.40;1.30;;;2.60;60.80;;;;;;6256769;28;20204;-63
2024/01/08 05:44:06;;;;;;;1.80;1.00;;;2.50;61.20;;;;;;6273455;28;20232;-64
2024/01/08 05:47:07;;;;;;;1.53;1.40;;;2.50;60.90;;;;;;6259157;28;20212;-64
2024/01/08 05:50:08;;;;;;;1.30;1.20;;;2.50;59.50;;;;;;6261286;28;20189;-64
2024/01/08 05:53:09;;;;;;;1.40;1.30;;;2.50;59.60;;;;;;6259531;28;20189;-64
2024/01/08 05:56:10;;;;;;;1.30;1.20;;;2.50;60.50;;;;;;6264988;28;20256;-64
2024/01/08 05:59:10;;;;;;;1.50;1.30;;;2.50;60.30;;;;;;6269571;28;20297;-64
2024/01/08 06:02:11;;;;;;;1.33;1.20;;;2.50;60.20;;;;;;6261015;28;20204;-64
2024/01/08 06:05:13;;;;;;;1.20;1.10;;;2.50;60.30;;;;;;6264023;28;20193;-64
2024/01/08 06:08:13;;;;;;;1.47;1.30;;;2.50;60.30;;;;;;6270199;28;20217;-64
2024/01/08 06:11:14;;;;;;;2.40;1.67;;;2.50;60.20;;;;;;6262142;28;20254;-63
2024/01/08 06:14:15;;;;;;;1.30;1.20;;;2.40;60.60;;;;;;6270062;28;20193;-63
2024/01/08 06:17:17;;;;;;;1.50;1.40;;;2.40;60.30;;;;;;6265083;28;20205;-63
2024/01/08 06:20:17;;;;;;;1.93;1.30;;;2.40;61.70;;;;;;6261678;28;20193;-63
2024/01/08 06:23:18;;;;;;;1.63;1.13;;;2.50;59.80;;;;;;6264941;28;20286;-63
2024/01/08 06:26:20;;;;;;;1.80;1.50;;;2.50;59.70;;;;;;6283253;28;20208;-63
2024/01/08 06:29:21;;;;;;;2.63;1.77;;;2.40;60.80;;;;;;6301645;28;20205;-63
2024/01/08 06:32:21;;;;;;;1.47;1.37;;;2.40;59.10;;;;;;6269624;28;20256;-63
2024/01/08 06:35:22;;;;;;;1.20;1.10;;;2.40;59.70;;;;;;6258085;28;20192;-63
2024/01/08 06:38:23;;;;;;;1.60;1.10;;;2.40;60.40;;;;;;6262782;28;20190;-63
2024/01/08 06:41:23;;;;;;;1.27;1.17;;;2.40;60.40;;;;;;6261607;28;20265;-63
2024/01/08 06:44:24;;;;;;;1.10;1.00;;;2.40;59.40;;;;;;6269628;28;20233;-63
2024/01/08 06:47:26;;;;;;;1.20;1.10;;;;;;;;;;6267671;28;20246;-63
2024/01/08 06:50:26;;;;;;;2.40;1.17;;;2.30;59.70;;;;;;6295923;28;20200;-63
2024/01/08 06:53:27;;;;;;;1.30;1.20;;;2.20;59.80;;;;;;6279934;28;20192;-64
2024/01/08 06:56:28;;;;;;;1.53;1.10;;;2.30;58.70;;;;;;6293412;28;20238;-64
2024/01/08 06:59:29;;;;;;;1.37;1.23;;;2.30;59.10;;;;;;6278754;28;20243;-63
2024/01/08 07:02:29;;;;;;;0.73;0.73;;;2.20;59.30;;;;;;6278270;28;20203;-63
2024/01/08 07:05:30;;;;;;;1.33;1.23;;;2.20;59.80;;;;;;6273327;28;20207;-63
2024/01/08 07:08:30;;;;;;;1.30;1.20;;;2.20;60.50;;;;;;6266754;28;20222;-63
2024/01/08 07:11:31;;;;;;;1.23;1.13;;;2.30;60.00;;;;;;6263687;28;20195;-63
2024/01/08 07:14:32;;;;;;;1.33;1.10;;;2.20;60.20;;;;;;6283486;28;20189;-63
2024/01/08 07:17:33;;;;;;;1.63;1.20;;;2.20;60.60;;;;;;6272944;28;20205;-63
2024/01/08 07:20:34;;;;;;;1.83;1.30;;;2.20;59.70;;;;;;6283387;28;20218;-63
2024/01/08 07:23:36;;;;;;;1.30;1.20;;;2.30;59.80;;;;;;6273494;28;20192;-63
2024/01/08 07:26:36;;;;;;;1.40;1.10;;;2.20;59.90;;;;;;6285832;28;20227;-63
2024/01/08 07:29:37;;;;;;;1.10;1.00;;;2.30;59.30;;;;;;6265887;28;20212;-63
2024/01/08 07:32:38;;;;;;;1.10;1.00;;;2.30;58.70;;;;;;6271832;28;20192;-63
2024/01/08 07:35:39;;;;;;;1.57;1.00;;;2.30;60.00;;;;;;6261922;28;20193;-63
2024/01/08 07:38:40;;;;;;;0.90;0.90;;;2.30;58.70;;;;;;6289431;28;20207;-63
2024/01/08 07:41:41;;;;;;;1.30;1.10;;;2.40;58.50;;;;;;6264453;28;20275;-63
2024/01/08 07:44:42;;;;;;;0.90;0.90;;;2.30;58.50;;;;;;6293371;28;20188;-63
2024/01/08 07:47:43;;;;;;;0.90;0.90;;;2.30;58.60;;;;;;6289270;28;20224;-63
2024/01/08 07:50:44;;;;;;;0.90;0.90;;;2.30;58.70;;;;;;6266778;28;20211;-63
2024/01/08 07:53:44;;;;;;;1.00;0.90;;;2.30;59.80;;;;;;6283803;28;20187;-63
2024/01/08 07:56:45;;;;;;;1.13;0.90;;;2.30;59.00;;;;;;6262035;28;20594;-63
2024/01/08 07:59:46;;;;;;;1.10;1.00;;;2.30;59.90;;;;;;6256504;28;20254;-63
2024/01/08 08:02:46;;;;;;;1.00;0.90;;;2.40;58.80;;;;;;6264935;28;20219;-63
2024/01/08 08:05:47;;;;;;;1.07;0.97;;;2.40;59.40;;;;;;6257114;28;20224;-63
2024/01/08 08:08:49;;;;;;;0.80;0.80;;;2.40;58.60;;;;;;6271706;28;20306;-63
2024/01/08 08:11:50;;;;;;;1.00;1.00;;;2.30;58.70;;;;;;6267886;28;20224;-63
2024/01/08 08:14:51;;;;;;;1.33;1.20;;;2.40;58.80;;;;;;6270428;28;20184;-63
2024/01/08 08:17:51;;;;;;;1.20;1.10;;;2.30;58.20;;;;;;6266365;28;20232;-63
2024/01/08 08:20:52;;;;;;;1.10;0.93;;;2.30;58.90;;;;;;6278957;28;20332;-63
2024/01/08 08:23:55;;;;;;;0.90;0.90;;;2.30;58.70;;;;;;6264628;28;20189;-63
2024/01/08 08:26:56;;;;;;;1.17;1.10;;;2.30;59.20;;;;;;6263509;28;20246;-63
2024/01/08 08:29:56;;;;;;;2.43;1.00;;;2.40;58.20;;;;;;6288104;28;20180;-63
2024/01/08 08:32:58;;;;;;;2.60;1.10;;;2.30;57.40;;;;;;6268562;28;20196;-63
2024/01/08 08:35:59;;;;;;;1.00;0.90;;;2.40;57.10;;;;;;6266193;28;20231;-63
2024/01/08 08:39:00;;;;;;;1.63;1.07;;;2.40;57.20;;;;;;6279789;28;20268;-63
2024/01/08 08:42:00;;;;;;;0.90;0.90;;;2.30;57.40;;;;;;6279805;28;20188;-63
2024/01/08 08:45:01;;;;;;;1.23;1.13;;;2.30;56.80;;;;;;6267737;28;20192;-63
2024/01/08 08:48:02;;;;;;;1.10;1.00;;;2.30;58.20;;;;;;6262063;28;20221;-63
2024/01/08 08:51:03;;;;;;;1.17;1.07;;;2.30;58.20;;;;;;6257668;28;20279;-63
2024/01/08 08:54:04;;;;;;;2.20;1.20;;;2.40;57.60;;;;;;6282122;28;20286;-63
2024/01/08 08:57:04;;;;;;;0.80;0.80;;;2.40;57.20;;;;;;6262750;28;20243;-63
2024/01/08 09:00:09;;;;;;;0.77;0.77;;;2.40;56.70;;;;;;6281381;28;20191;-63
2024/01/08 09:03:09;;;;;;;1.10;1.00;;;2.40;57.20;;;;;;6289604;28;20185;-63
2024/01/08 09:06:10;;;;;;;1.00;1.00;;;2.40;57.10;;;;;;6259566;28;20195;-63
2024/01/08 09:09:12;;;;;;;1.10;1.00;;;2.40;58.60;;;;;;6267607;28;20216;-63
2024/01/08 09:12:13;;;;;;;4.93;3.70;;;2.50;58.00;;;;;;6296299;28;20177;-63
2024/01/08 09:15:14;;;;;;;5.30;3.40;;;2.40;64.80;;;;;;6272132;28;20283;-63
2024/01/08 09:18:15;;;;;;;4.50;3.37;;;;;;;;;;6301409;28;20301;-63
2024/01/08 09:21:15;;;;;;;3.53;3.23;;;2.40;66.50;;;;;;6300582;28;20187;-63
2024/01/08 09:24:17;;;;;;;5.43;3.20;;;2.30;68.20;;;;;;6270579;28;20207;-63
2024/01/08 09:27:18;;;;;;;4.30;3.20;;;2.40;67.50;;;;;;6266889;28;20201;-63
2024/01/08 09:30:19;;;;;;;3.70;3.03;;;2.40;68.20;;;;;;6261198;28;20271;-63
2024/01/08 09:33:19;;;;;;;4.90;3.20;;;2.20;68.60;;;;;;6261904;28;20181;-63
2024/01/08 09:36:20;;;;;;;4.83;3.37;;;2.30;68.30;;;;;;6263767;28;20272;-63
2024/01/08 09:39:21;;;;;;;4.73;3.00;;;2.20;68.20;;;;;;6277420;28;20237;-63
2024/01/08 09:42:23;;;;;;;4.67;3.30;;;2.30;68.70;;;;;;6264248;28;20192;-63
2024/01/08 09:45:26;;;;;;;4.40;3.10;;;2.30;68.50;;;;;;6287132;28;20196;-63
2024/01/08 09:48:27;;;;;;;2.97;2.67;;;2.40;68.40;;;;;;6292924;28;20213;-63
2024/01/08 09:51:28;;;;;;;3.20;2.63;;;2.30;68.70;;;;;;6293232;28;20179;-63
2024/01/08 09:54:29;;;;;;;4.30;3.23;;;2.20;68.90;;;;;;6264815;28;20186;-63
2024/01/08 09:57:30;;;;;;;4.80;3.03;;;2.20;69.50;;;;;;6291149;28;20232;-63
2024/01/08 10:00:31;;;;;;;4.30;2.80;;;2.20;68.50;;;;;;6265959;28;20181;-64
2024/01/08 10:03:33;;;;;;;3.20;2.90;;;2.20;69.90;;;;;;6268161;28;20209;-64
2024/01/08 10:06:33;;;;;;;4.17;3.47;;;2.20;69.50;;;;;;6260993;28;20201;-64
2024/01/08 10:09:34;;;;;;;4.20;3.00;;;2.20;68.90;;;;;;6252075;28;20212;-64
2024/01/08 10:12:35;;;;;;;5.23;3.30;;;2.20;70.00;;;;;;6297860;28;20180;-64
2024/01/08 10:15:37;;;;;;;4.80;3.10;;;2.00;70.00;;;;;;6281747;28;20180;-64
2024/01/08 10:18:38;;;;;;;3.33;2.80;;;2.00;70.70;;;;;;6263397;28;20216;-64
2024/01/08 10:21:39;;;;;;;3.13;2.83;;;2.00;69.90;;;;;;6282654;28;20218;-64
2024/01/08 10:24:42;;;;;;;5.20;3.03;;;2.10;70.30;;;;;;6258162;28;20192;-64
2024/01/08 10:27:44;;;;;;;4.27;3.27;;;2.10;69.70;;;;;;6287378;28;20209;-64
2024/01/08 10:30:46;;;;;;;2.80;2.60;;;2.10;70.20;;;;;;6282119;28;20196;-64
2024/01/08 10:33:47;;;;;;;4.57;3.10;;;2.20;70.40;;;;;;6289241;28;20196;-64
2024/01/08 10:36:49;;;;;;;4.50;3.53;;;2.30;69.80;;;;;;6255871;28;20211;-64
2024/01/08 10:39:51;;;;;;;3.53;2.80;;;2.20;68.70;;;;;;6260085;28;20190;-64
2024/01/08 10:42:52;;;;;;;3.93;3.43;;;2.20;69.80;;;;;;6293021;28;20188;-64
2024/01/08 10:45:56;;;;;;;4.27;3.50;;;2.20;70.20;;;;;;6256924;28;20230;-64
2024/01/08 10:48:59;;;;;;;7.30;3.53;;;2.20;70.10;;;;;;6304992;28;20253;-64
2024/01/08 10:52:02;;;;;;;5.57;3.53;;;2.30;70.60;;;;;;6292660;28;20291;-64
2024/01/08 10:55:04;;;;;;;5.20;3.43;;;2.40;70.40;;;;;;6314121;28;20196;-64
2024/01/08 10:58:08;;;;;;;4.33;3.20;;;2.40;70.10;;;;;;6283503;28;20224;-64
2024/01/08 11:01:09;;;;;;;5.03;3.87;;;2.30;70.10;;;;;;6285149;28;20186;-64
2024/01/08 11:04:12;;;;;;;4.83;3.67;;;2.30;70.00;;;;;;6252631;28;20193;-64
2024/01/08 11:07:13;;;;;;;3.10;2.80;;;2.30;69.20;;;;;;6273446;28;20223;-64
2024/01/08 11:10:15;;;;;;;5.37;3.57;;;2.20;69.40;;;;;;6282198;28;20230;-64
2024/01/08 11:13:19;;;;;;;4.93;3.37;;;2.20;69.10;;;;;;6282606;28;20246;-64
2024/01/08 11:16:30;;;;;;;4.70;3.53;;;2.20;69.70;;;;;;6289619;28;20181;-64
2024/01/08 11:19:30;;;;;;;4.57;3.23;;;2.30;70.00;;;;;;6299176;28;20193;-64
2024/01/08 11:22:31;;;;;;;5.00;3.70;;;2.30;69.60;;;;;;6282932;28;20223;-64
2024/01/08 11:25:32;;;;;;;3.77;3.10;;;2.30;69.20;;;;;;6303718;28;20187;-64
2024/01/08 11:28:36;;;;;;;4.87;3.47;;;2.10;69.90;;;;;;6270076;28;20299;-64
2024/01/08 11:31:46;;;;;;;3.53;2.97;;;2.10;70.40;;;;;;6286078;28;20212;-64
2024/01/08 11:34:46;;;;;;;5.47;3.53;;;2.20;69.90;;;;;;6310220;28;20181;-64
2024/01/08 11:38:06;;;;;;;3.70;3.40;;;2.30;69.50;;;;;;6315087;28;20207;-64
2024/01/08 11:41:06;;;;;;;6.23;4.67;;;2.20;69.80;;;;;;6302111;28;20186;-64
2024/01/08 11:44:08;;;;;;;5.80;3.77;;;2.20;68.80;;;;;;6288239;28;20222;-64
2024/01/08 11:47:09;;;;;;;4.60;4.13;;;2.30;69.10;;;;;;6265776;28;20189;-64
2024/01/08 11:50:10;;;;;;;5.37;4.23;;;2.20;69.10;;;;;;6266528;28;20270;-64
2024/01/08 11:53:11;;;;;;;5.47;4.23;;;2.20;69.70;;;;;;6284378;28;20188;-64
2024/01/08 11:56:12;;;;;;;4.53;3.47;;;2.30;68.50;;;;;;6266871;28;20239;-64
2024/01/08 11:59:28;;;;;;;5.33;3.93;;;2.20;69.30;;;;;;6266808;28;20220;-64
2024/01/08 12:02:28;;;;;;;4.43;3.60;;;2.30;70.00;;;;;;6294329;28;20251;-64
2024/01/08 12:05:29;;;;;;;6.97;4.23;;;2.30;70.20;;;;;;6270108;28;20256;-64
2024/01/08 12:08:30;;;;;;;6.43;4.70;;;2.20;69.30;;;;;;6288725;28;20275;-64
2024/01/08 12:11:31;;;;;;;5.00;4.50;;;2.10;70.30;;;;;;6270135;28;20185;-63
2024/01/08 12:14:32;;;;;;;5.40;4.70;;;2.00;69.50;;;;;;6262763;28;20239;-66
2024/01/08 12:17:33;;;;;;;5.70;4.23;;;2.10;70.80;;;;;;6284216;28;20288;-66
2024/01/08 12:20:34;;;;;;;6.13;4.07;;;2.10;70.90;;;;;;6281852;28;20229;-67
2024/01/08 12:23:36;;;;;;;5.03;4.13;;;2.10;70.40;;;;;;6255195;28;20187;-64
2024/01/08 12:26:37;;;;;;;6.73;4.07;;;2.00;71.10;;;;;;6284321;28;20212;-65
2024/01/08 12:29:39;;;;;;;5.30;4.07;;;2.10;71.90;;;;;;6264984;28;20212;-63
2024/01/08 12:32:40;;;;;;;6.23;3.73;;;2.20;70.50;;;;;;6281185;28;20199;-62
2024/01/08 12:35:42;;;;;;;4.80;4.00;;;2.20;70.90;;;;;;6266399;28;20208;-62
2024/01/08 12:38:42;;;;;;;6.03;3.67;;;2.30;70.90;;;;;;6265905;28;20203;-62
2024/01/08 12:41:44;;;;;;;4.20;3.50;;;2.30;69.70;;;;;;6287001;28;20215;-62
2024/01/08 12:44:49;;;;;;;6.23;4.20;;;2.30;70.90;;;;;;6286004;28;20196;-62
2024/01/08 12:47:50;;;;;;;7.67;4.27;;;2.40;71.50;;;;;;6301145;28;20215;-63
2024/01/08 12:50:51;;;;;;;6.77;4.70;;;2.40;71.30;;;;;;6254809;28;20184;-63
2024/01/08 12:53:51;;;;;;;5.53;4.20;;;2.40;71.30;;;;;;6258775;28;20189;-70
2024/01/08 12:56:52;;;;;;;6.73;4.60;;;2.40;71.20;;;;;;6265096;28;20192;-70
2024/01/08 12:59:54;;;;;;;5.77;4.43;;;2.50;71.40;;;;;;6293648;28;20188;-70
2024/01/08 13:02:56;;;;;;;5.70;5.07;;;2.50;71.20;;;;;;6298415;28;20220;-70
2024/01/08 13:05:56;;;;;;;7.10;5.00;;;2.50;73.40;;;;;;6285511;28;20195;-71
2024/01/08 13:08:57;;;;;;;6.67;4.37;;;2.40;73.40;;;;;;6261227;28;20216;-71
2024/01/08 13:11:58;;;;;;;6.13;4.10;;;2.40;73.50;;;;;;6259674;28;20199;-71
2024/01/08 13:14:58;;;;;;;5.27;4.50;;;2.40;73.90;;;;;;6267700;28;20194;-72
2024/01/08 13:17:59;;;;;;;5.47;4.53;;;2.40;74.70;;;;;;6270317;28;20193;-63
2024/01/08 13:21:00;;;;;;;6.07;4.10;;;2.30;75.00;;;;;;6269868;28;20202;-63
2024/01/08 13:24:01;;;;;;;6.50;4.43;;;2.30;74.50;;;;;;6265993;28;20279;-63
2024/01/08 13:27:02;;;;;;;5.13;4.63;;;2.30;75.70;;;;;;6256868;28;20204;-63
2024/01/08 13:30:03;;;;;;;5.30;3.63;;;2.40;74.70;;;;;;6282548;28;20196;-64
2024/01/08 13:33:04;;;;;;;5.10;4.63;;;2.40;75.00;;;;;;6263089;28;20200;-63
2024/01/08 13:36:05;;;;;;;5.70;4.43;;;2.40;74.50;;;;;;6256644;28;20249;-63
2024/01/08 13:39:09;;;;;;;5.43;4.37;;;2.40;74.70;;;;;;6279215;28;20292;-63
2024/01/08 13:42:14;;;;;;;5.03;4.47;;;2.30;73.50;;;;;;6297134;28;20188;-63
2024/01/08 13:45:15;;;;;;;5.23;4.60;;;2.30;73.90;;;;;;6262808;28;20243;-63
2024/01/08 13:48:17;;;;;;;5.27;4.57;;;2.20;74.30;;;;;;6278780;28;20227;-62
2024/01/08 13:51:18;;;;;;;6.43;4.90;;;2.20;75.50;;;;;;6279138;28;20259;-63
2024/01/08 13:54:19;;;;;;;5.67;4.97;;;2.30;75.50;;;;;;6267868;28;20241;-63
2024/01/08 13:57:19;;;;;;;5.07;4.30;;;2.30;75.20;;;;;;6248036;28;20254;-63
2024/01/08 14:00:21;;;;;;;6.63;4.90;;;2.30;75.20;;;;;;6284512;28;20195;-63
2024/01/08 14:03:22;;;;;;;6.53;4.70;;;2.20;75.40;;;;;;6274074;28;20563;-63
2024/01/08 14:06:22;;;;;;;6.67;5.27;;;2.20;75.50;;;;;;6275590;28;20191;-63
2024/01/08 14:09:23;;;;;;;5.13;4.17;;;2.20;76.50;;;;;;6257178;28;20213;-62
2024/01/08 14:12:24;;;;;;;7.10;5.37;;;2.20;76.10;;;;;;6269258;28;20183;-62
2024/01/08 14:15:24;;;;;;;6.17;5.00;;;2.20;76.40;;;;;;6273125;28;20189;-62
2024/01/08 14:18:25;;;;;;;6.53;4.97;;;2.20;75.80;;;;;;6251732;28;20253;-62
2024/01/08 14:21:26;;;;;;;8.37;5.27;;;2.20;76.10;;;;;;6280929;28;20198;-62
2024/01/08 14:24:26;;;;;;;6.53;5.80;;;2.10;75.80;;;;;;6279637;28;20196;-62
2024/01/08 14:27:28;;;;;;;7.13;5.37;;;2.10;76.70;;;;;;6283677;28;20210;-62
2024/01/08 14:30:28;;;;;;;5.90;4.83;;;2.10;76.50;;;;;;6264087;28;20211;-63
2024/01/08 14:33:29;;;;;;;5.77;5.07;;;2.10;76.50;;;;;;6268212;28;20196;-63
2024/01/08 14:36:30;;;;;;;6.47;5.17;;;2.10;76.50;;;;;;6262398;28;20189;-64
2024/01/08 14:39:31;;;;;;;8.50;5.87;;;2.10;76.80;;;;;;6285579;28;20196;-63
2024/01/08 14:42:32;;;;;;;7.03;5.60;;;2.10;76.60;;;;;;6265928;28;20189;-63
2024/01/08 14:45:33;;;;;;;6.63;5.17;;;2.10;76.90;;;;;;6258842;28;20301;-63
2024/01/08 14:48:34;;;;;;;7.30;5.37;;;2.10;75.60;;;;;;6302480;28;20214;-63
2024/01/08 14:51:34;;;;;;;6.20;5.13;;;2.00;76.30;;;;;;6266246;28;20230;-63
2024/01/08 14:54:35;;;;;;;6.97;5.20;;;2.00;76.90;;;;;;6286788;28;20192;-62
2024/01/08 14:57:36;;;;;;;8.93;5.87;;;1.90;76.90;;;;;;6287385;28;20239;-62
2024/01/08 15:00:36;;;;;;;6.07;5.17;;;2.00;76.00;;;;;;6273590;28;20181;-63
2024/01/08 15:03:37;;;;;;;6.50;5.50;;;1.90;76.40;;;;;;6289654;28;20216;-62
2024/01/08 15:06:38;;;;;;;6.40;5.07;;;1.90;76.50;;;;;;6268581;28;20215;-64
2024/01/08 15:09:38;;;;;;;7.47;5.80;;;1.80;76.50;;;;;;6253873;28;20281;-63
2024/01/08 15:12:40;;;;;;;6.30;4.97;;;1.90;76.80;;;;;;6284374;28;20281;-61
2024/01/08 15:15:43;;;;;;;7.47;6.27;;;1.80;76.70;;;;;;6296685;28;20229;-63
2024/01/08 15:18:44;;;;;;;8.17;6.50;;;1.70;76.90;;;;;;6301622;28;20188;-61
2024/01/08 15:21:47;;;;;;;7.93;6.03;;;1.70;77.80;;;;;;6271123;28;20187;-62
2024/01/08 15:24:55;;;;;;;6.93;5.50;;;1.70;77.20;;;;;;6269529;28;20192;-63
2024/01/08 15:27:55;;;;;;;8.97;6.20;;;1.80;76.80;;;;;;6278772;28;20212;-62
2024/01/08 15:31:00;;;;;;;6.10;5.03;;;1.80;76.90;;;;;;6289753;28;20192;-62
2024/01/08 15:34:01;;;;;;;7.13;5.90;;;1.80;77.20;;;;;;6268205;28;20237;-62
2024/01/08 15:37:02;;;;;;;7.83;6.20;;;1.90;77.50;;;;;;6262662;28;20188;-61
2024/01/08 15:40:05;;;;;;;7.57;6.07;;;1.90;78.30;;;;;;6273587;28;20196;-61
2024/01/08 15:43:06;;;;;;;7.27;5.63;;;1.90;77.40;;;;;;6268283;28;20190;-60
2024/01/08 15:46:07;;;;;;;8.37;5.90;;;1.80;77.20;;;;;;6274936;28;20199;-63
2024/01/08 15:49:08;;;;;;;8.40;6.63;;;1.80;77.60;;;;;;6290055;28;20209;-61
2024/01/08 15:52:09;;;;;;;8.43;6.60;;;1.70;77.50;;;;;;6281579;28;20281;-61
2024/01/08 15:55:09;;;;;;;7.40;6.27;;;1.70;77.60;;;;;;6285385;28;20212;-61